Bernard Harbour, Canada
Current Conditions -  °F | °C
As of 8:00 PM on Friday 21 Nov 2014 (Local Time) from CYCO Reporting Station
Clear Clear  
Wind Chill: -26°   Ceiling: Unl
Heat Index: -6°   Visibility: 15mi
Dew Point: -11°   Wind: 14mph
Humidity: 77%   Direction: 290°WNW
Pressure: 29.83"   Gusts: 20mph
Location:  68.78°N, 114.78°W
Report Text: CYCO 220300Z 29012G17KT 15SM SKC M21/M24 A2983 RMK FROIN AURBOSLP105
Loading
Personal Weather Stations






























Interactive Weather Map New forecast layout! Learn more

10-Day Weather Forecast

Advertisements
Track Severe Weather on mobile